Time;durP1;ratioP1;P1;durP2;ratioP2;P2;SDS_P1;SDS_P2;PMS_P1;PMS_P2;Temp;Humidity;BMP_temperature;BMP_pressure;BME280_temperature;BME280_humidity;BME280_pressure;Samples;Min_cycle;Max_cycle;Signal;HPM_P1;HPM_P2
2022/08/17 00:06:12;;;;;;;9.07;4.47;;;21.90;99.90;;;;;;12524667;28;20451;-33
2022/08/17 00:12:14;;;;;;;8.60;4.68;;;21.90;99.90;;;;;;12520137;28;20501;-37
2022/08/17 00:18:37;;;;;;;7.22;4.82;;;21.90;99.90;;;;;;12521250;28;20048;-37
2022/08/17 00:24:58;;;;;;;8.38;5.10;;;21.90;99.90;;;;;;12530492;28;20072;-33
2022/08/17 00:31:02;;;;;;;6.72;5.20;;;21.80;99.90;;;;;;12523265;28;20474;-37
2022/08/17 00:37:04;;;;;;;7.32;5.20;;;21.70;99.90;;;;;;12534662;28;20057;-37
2022/08/17 00:43:17;;;;;;;11.60;5.07;;;21.40;99.90;;;;;;12511710;28;20045;-33
2022/08/17 00:49:22;;;;;;;10.17;5.47;;;21.20;99.90;;;;;;12528769;28;20086;-33
2022/08/17 00:55:25;;;;;;;8.07;5.53;;;21.30;99.90;;;;;;12533057;28;20327;-37
2022/08/17 01:01:27;;;;;;;8.87;5.40;;;21.50;99.90;;;;;;12538461;28;20048;-37
2022/08/17 01:07:29;;;;;;;7.63;5.77;;;21.50;99.90;;;;;;12531199;28;20079;-37
2022/08/17 01:13:41;;;;;;;8.45;5.80;;;21.50;99.90;;;;;;12536586;28;20515;-39
2022/08/17 01:19:44;;;;;;;8.00;6.18;;;21.40;99.90;;;;;;12532570;28;20049;-38
2022/08/17 01:25:51;;;;;;;8.88;6.00;;;21.30;99.90;;;;;;12534416;28;20459;-33
2022/08/17 01:31:55;;;;;;;7.88;5.60;;;21.30;99.90;;;;;;12532288;28;20074;-37
2022/08/17 01:37:57;;;;;;;10.98;5.65;;;21.20;99.90;;;;;;12534806;28;20056;-33
2022/08/17 01:44:05;;;;;;;6.95;4.95;;;21.20;99.90;;;;;;12528461;28;20090;-37
2022/08/17 01:50:15;;;;;;;9.20;5.57;;;21.30;99.90;;;;;;12519733;28;20543;-33
2022/08/17 01:56:20;;;;;;;9.27;5.60;;;21.10;99.90;;;;;;12492228;28;20045;-38
2022/08/17 02:02:22;;;;;;;6.93;5.15;;;21.10;99.90;;;;;;12531847;28;20455;-37
2022/08/17 02:08:34;;;;;;;8.57;5.50;;;21.00;99.90;;;;;;12532621;28;20049;-36
2022/08/17 02:14:40;;;;;;;10.02;4.85;;;20.90;99.90;;;;;;12534221;28;20106;-33
2022/08/17 02:20:42;;;;;;;10.90;5.03;;;21.00;99.90;;;;;;12516557;28;20394;-37
2022/08/17 02:26:45;;;;;;;8.80;5.63;;;21.10;99.90;;;;;;12531149;28;20053;-33
2022/08/17 02:32:47;;;;;;;8.93;5.30;;;21.00;99.90;;;;;;12526524;28;20455;-37
2022/08/17 02:38:49;;;;;;;8.55;6.45;;;21.00;99.90;;;;;;12536992;28;20520;-33
2022/08/17 02:44:51;;;;;;;7.70;5.07;;;20.90;99.90;;;;;;12525027;28;20048;-37
2022/08/17 02:50:53;;;;;;;8.18;5.03;;;20.90;99.90;;;;;;12535405;28;20094;-33
2022/08/17 02:56:55;;;;;;;7.10;5.57;;;20.80;99.90;;;;;;12527919;28;20254;-33
2022/08/17 03:02:57;;;;;;;7.95;5.72;;;20.70;99.90;;;;;;12529654;28;20049;-33
2022/08/17 03:08:59;;;;;;;8.73;6.13;;;20.60;99.90;;;;;;12526481;28;20079;-33
2022/08/17 03:15:09;;;;;;;8.50;6.03;;;20.50;99.90;;;;;;12527012;28;20093;-33
2022/08/17 03:21:12;;;;;;;9.25;6.10;;;20.40;99.90;;;;;;12529892;28;20495;-33
2022/08/17 03:27:13;;;;;;;9.00;5.70;;;20.30;99.90;;;;;;12525978;28;20051;-33
2022/08/17 03:33:16;;;;;;;7.93;6.25;;;20.40;99.90;;;;;;12524524;28;20489;-36
2022/08/17 03:39:17;;;;;;;8.70;6.03;;;20.40;99.90;;;;;;12523743;28;20049;-37
2022/08/17 03:58:04;;;;;;;9.73;6.05;;;20.30;99.90;;;;;;12528604;28;20481;-37
2022/08/17 04:04:07;;;;;;;10.20;5.80;;;20.30;99.90;;;;;;12520866;28;20087;-33
2022/08/17 04:10:09;;;;;;;8.93;6.50;;;20.20;99.90;;;;;;12525629;28;20070;-37
2022/08/17 04:16:10;;;;;;;9.18;6.55;;;20.00;99.90;;;;;;12537891;28;20122;-37
2022/08/17 04:22:12;;;;;;;9.50;6.20;;;19.90;99.90;;;;;;12525709;28;20067;-33
2022/08/17 04:28:34;;;;;;;10.23;5.97;;;19.90;99.90;;;;;;12526114;28;20053;-37
2022/08/17 04:34:35;;;;;;;7.22;6.07;;;19.80;99.90;;;;;;12527984;28;20124;-33
2022/08/17 04:46:58;;;;;;;9.40;7.80;;;19.60;99.90;;;;;;12522670;28;20110;-35
2022/08/17 04:52:59;;;;;;;9.05;6.53;;;19.60;99.90;;;;;;12521076;28;20046;-35
2022/08/17 04:59:07;;;;;;;9.55;6.63;;;19.70;99.90;;;;;;12526376;28;20481;-39
2022/08/17 05:05:09;;;;;;;10.25;6.30;;;19.90;99.90;;;;;;12525280;28;20135;-35
2022/08/17 05:11:14;;;;;;;9.25;6.75;;;19.90;99.90;;;;;;12526908;28;20510;-39
2022/08/17 05:17:16;;;;;;;9.35;7.55;;;19.90;99.90;;;;;;12527453;28;20106;-36
2022/08/17 05:23:20;;;;;;;9.90;7.70;;;19.80;99.90;;;;;;12524988;28;20462;-33
2022/08/17 05:29:22;;;;;;;10.52;7.40;;;19.90;99.90;;;;;;12527116;28;20045;-33
2022/08/17 05:35:38;;;;;;;10.20;7.03;;;19.90;99.90;;;;;;12535466;28;20083;-33
2022/08/17 05:41:40;;;;;;;9.13;7.40;;;20.00;99.90;;;;;;12534210;28;20075;-33
2022/08/17 05:47:43;;;;;;;9.27;6.55;;;20.10;99.90;;;;;;12535218;28;20045;-33
2022/08/17 05:53:52;;;;;;;9.75;6.97;;;20.30;99.90;;;;;;12535282;28;20094;-33
2022/08/17 06:00:13;;;;;;;10.00;7.78;;;20.40;99.90;;;;;;12525349;28;20477;-33
2022/08/17 06:06:37;;;;;;;10.85;8.02;;;20.30;99.90;;;;;;12521906;28;20071;-36
2022/08/17 06:13:09;;;;;;;9.02;7.65;;;20.40;99.90;;;;;;12528185;28;20501;-37
2022/08/17 06:19:26;;;;;;;13.73;8.85;;;20.50;99.90;;;;;;12531522;28;20117;-37
2022/08/17 06:25:37;;;;;;;11.73;8.45;;;20.30;99.90;;;;;;12528128;28;21219;-33
2022/08/17 06:31:41;;;;;;;8.93;7.47;;;20.50;99.90;;;;;;12530512;28;20135;-33
2022/08/17 06:38:15;;;;;;;11.27;7.85;;;20.60;99.90;;;;;;12528922;28;20053;-37
2022/08/17 06:45:13;;;;;;;9.82;8.32;;;20.60;99.90;;;;;;12513889;28;20048;-33
2022/08/17 06:51:28;;;;;;;10.52;7.43;;;20.60;99.90;;;;;;12528010;28;20448;-36
2022/08/17 06:57:34;;;;;;;9.68;6.78;;;20.80;99.90;;;;;;12537077;28;20148;-36
2022/08/17 07:03:43;;;;;;;8.55;6.47;;;21.00;99.90;;;;;;12530996;28;20056;-36
2022/08/17 07:09:45;;;;;;;9.25;6.60;;;21.10;99.90;;;;;;12525344;28;20053;-33
2022/08/17 07:15:49;;;;;;;9.38;5.68;;;21.20;99.90;;;;;;12529022;28;20045;-37
2022/08/17 07:22:03;;;;;;;9.13;5.80;;;21.30;99.90;;;;;;12527414;28;20048;-33
2022/08/17 07:28:06;;;;;;;10.75;5.38;;;21.50;99.90;;;;;;12526739;28;20126;-36
2022/08/17 07:34:13;;;;;;;7.18;5.10;;;21.60;99.90;;;;;;12527342;28;20558;-37
2022/08/17 07:40:15;;;;;;;9.88;5.18;;;21.80;99.90;;;;;;12524352;28;20053;-33
2022/08/17 07:53:16;;;;;;;10.20;5.03;;;22.20;99.90;;;;;;12529589;28;20538;-33
2022/08/17 07:59:24;;;;;;;9.75;5.20;;;22.40;99.90;;;;;;12528610;28;20174;-33
2022/08/17 08:05:30;;;;;;;5.97;4.22;;;22.50;99.90;;;;;;12530135;28;20535;-33
2022/08/17 08:11:51;;;;;;;6.93;4.07;;;22.70;99.90;;;;;;12519041;28;20413;-33
2022/08/17 08:17:59;;;;;;;7.28;4.10;;;23.00;99.90;;;;;;12527616;28;20071;-33
2022/08/17 08:24:20;;;;;;;10.30;4.55;;;23.10;99.90;;;;;;12528903;28;20049;-34
2022/08/17 08:30:22;;;;;;;8.75;4.78;;;23.20;99.90;;;;;;12523222;28;20041;-33
2022/08/17 08:37:00;;;;;;;8.30;4.28;;;23.50;99.90;;;;;;12532167;28;20053;-37
2022/08/17 08:43:49;;;;;;;12.75;4.22;;;23.50;99.90;;;;;;12526450;28;20176;-37
2022/08/17 08:50:10;;;;;;;7.95;4.45;;;23.70;99.90;;;;;;12526137;28;20079;-33
2022/08/17 08:57:03;;;;;;;6.15;4.07;;;23.80;99.90;;;;;;12523204;28;20464;-38
2022/08/17 09:04:02;;;;;;;7.78;3.75;;;24.00;99.90;;;;;;12518805;28;20052;-34
2022/08/17 09:10:45;;;;;;;9.57;4.10;;;24.20;99.90;;;;;;12532600;28;20511;-37
2022/08/17 09:17:00;;;;;;;6.65;3.22;;;24.40;99.90;;;;;;12536199;28;20057;-33
2022/08/17 09:23:09;;;;;;;8.60;3.25;;;24.70;99.90;;;;;;12533841;28;20414;-33
2022/08/17 09:29:14;;;;;;;6.95;3.00;;;25.00;99.90;;;;;;12534931;28;20084;-34
2022/08/17 09:35:28;;;;;;;6.93;3.10;;;25.70;99.90;;;;;;12535987;28;20040;-33
2022/08/17 09:41:49;;;;;;;5.97;2.60;;;26.10;99.90;;;;;;12533480;28;20467;-38
2022/08/17 09:47:54;;;;;;;;;;;26.30;99.90;;;;;;12515213;28;20041;-37
2022/08/17 09:53:58;;;;;;;5.35;2.55;;;26.40;99.90;;;;;;12533481;28;19966;-39
2022/08/17 10:00:29;;;;;;;6.13;2.50;;;26.80;99.90;;;;;;12534539;28;20060;-39
2022/08/17 10:06:39;;;;;;;5.00;2.67;;;27.20;99.90;;;;;;12531171;28;20962;-35
2022/08/17 10:12:41;;;;;;;5.22;2.67;;;27.30;99.90;;;;;;12538376;28;20052;-39
2022/08/17 10:19:12;;;;;;;5.07;2.10;;;27.40;99.90;;;;;;12538290;28;20049;-39
2022/08/17 10:32:02;;;;;;;6.05;2.00;;;27.70;99.90;;;;;;12523817;28;20098;-39
2022/08/17 10:38:07;;;;;;;3.33;1.80;;;27.90;99.90;;;;;;12528600;28;20114;-35
2022/08/17 10:44:22;;;;;;;3.88;2.15;;;27.60;99.90;;;;;;12525737;28;20541;-39
2022/08/17 10:50:44;;;;;;;3.47;1.95;;;27.70;99.90;;;;;;12517899;28;20072;-35
2022/08/17 10:56:51;;;;;;;4.72;1.85;;;27.80;99.90;;;;;;12528986;28;20073;-39
2022/08/17 11:02:56;;;;;;;6.63;2.00;;;27.70;99.90;;;;;;12535324;28;20098;-40
2022/08/17 11:09:05;;;;;;;4.40;1.90;;;27.70;99.90;;;;;;12534114;28;20462;-36
2022/08/17 11:15:16;;;;;;;6.63;2.38;;;28.10;99.90;;;;;;12533077;28;20102;-35
2022/08/17 11:21:28;;;;;;;5.93;2.30;;;28.30;99.90;;;;;;12533488;28;20144;-37
2022/08/17 11:27:33;;;;;;;4.85;1.90;;;28.00;99.90;;;;;;12527948;28;20079;-33
2022/08/17 11:33:42;;;;;;;4.38;2.05;;;27.80;99.90;;;;;;12530899;28;20037;-37
2022/08/17 11:40:05;;;;;;;3.88;1.73;;;27.70;99.90;;;;;;12521704;28;20053;-37
2022/08/17 11:46:10;;;;;;;;;;;27.80;99.90;;;;;;12528638;28;20056;-37
2022/08/17 11:52:42;;;;;;;3.75;1.92;;;27.90;99.90;;;;;;12523155;28;19970;-38
2022/08/17 11:58:47;;;;;;;4.30;1.83;;;27.90;99.90;;;;;;12525457;28;20098;-37
2022/08/17 12:05:19;;;;;;;4.17;1.83;;;27.90;99.90;;;;;;12532261;28;20094;-33
2022/08/17 12:11:45;;;;;;;6.60;2.00;;;27.90;99.90;;;;;;12533505;28;20516;-33
2022/08/17 12:18:16;;;;;;;4.32;1.90;;;27.80;99.90;;;;;;12517954;28;20515;-37
2022/08/17 12:24:28;;;;;;;5.90;2.35;;;27.80;99.90;;;;;;12533587;28;20049;-33
2022/08/17 12:30:29;;;;;;;5.70;2.30;;;28.00;99.90;;;;;;12530521;28;20041;-33
2022/08/17 12:36:32;;;;;;;3.77;2.40;;;28.70;99.90;;;;;;12515065;28;20094;-33
2022/08/17 12:42:38;;;;;;;5.00;2.10;;;28.70;99.90;;;;;;12526162;28;20462;-33
2022/08/17 12:48:41;;;;;;;8.38;2.20;;;28.50;99.90;;;;;;12537396;28;20058;-37
2022/08/17 12:55:04;;;;;;;10.30;2.40;;;28.40;99.90;;;;;;12537004;28;20056;-37
2022/08/17 13:01:15;;;;;;;3.35;2.00;;;28.30;99.90;;;;;;12539426;28;20133;-37
2022/08/17 13:07:32;;;;;;;4.35;2.22;;;28.00;99.90;;;;;;12537958;28;20416;-35
2022/08/17 13:13:43;;;;;;;5.88;2.20;;;27.90;99.90;;;;;;12537298;28;20045;-37
2022/08/17 13:19:48;;;;;;;8.35;2.30;;;27.80;99.90;;;;;;12546438;28;20076;-33
2022/08/17 13:25:54;;;;;;;6.20;2.50;;;27.70;99.90;;;;;;12521634;28;20629;-33
2022/08/17 13:32:16;;;;;;;4.40;2.17;;;27.60;99.90;;;;;;12531450;28;20560;-33
2022/08/17 13:38:39;;;;;;;4.40;2.50;;;27.60;99.90;;;;;;12518157;28;20041;-33
2022/08/17 13:44:41;;;;;;;7.68;2.00;;;27.50;99.90;;;;;;12539134;28;20049;-37
2022/08/17 13:51:02;;;;;;;9.23;2.42;;;27.40;99.90;;;;;;12528995;28;20071;-33
2022/08/17 13:57:11;;;;;;;5.20;1.85;;;27.20;99.90;;;;;;12510475;28;20469;-33
2022/08/17 14:03:14;;;;;;;5.90;2.08;;;27.30;99.90;;;;;;12541313;28;20041;-33
2022/08/17 14:09:17;;;;;;;6.20;1.70;;;27.20;99.90;;;;;;12531985;28;20041;-33
2022/08/17 14:15:24;;;;;;;11.15;2.10;;;27.30;99.90;;;;;;12525965;28;20045;-37
2022/08/17 14:21:47;;;;;;;6.95;2.50;;;27.40;99.90;;;;;;12536744;28;20126;-33
2022/08/17 14:27:50;;;;;;;4.70;2.00;;;27.40;99.90;;;;;;12538852;28;20049;-37
2022/08/17 14:33:54;;;;;;;4.63;2.17;;;27.70;99.90;;;;;;12534777;28;20469;-37
2022/08/17 14:39:59;;;;;;;11.53;2.40;;;27.90;99.90;;;;;;12536544;28;20480;-34
2022/08/17 14:46:01;;;;;;;4.78;2.50;;;28.10;99.90;;;;;;12532855;28;20045;-33
2022/08/17 14:52:03;;;;;;;8.50;2.40;;;28.50;99.90;;;;;;12536403;28;20459;-37
2022/08/17 14:58:06;;;;;;;6.15;2.30;;;28.40;99.90;;;;;;12528335;28;20074;-36
2022/08/17 15:04:13;;;;;;;3.25;2.20;;;28.20;99.90;;;;;;12525299;28;20526;-37
2022/08/17 15:10:16;;;;;;;4.88;1.85;;;28.10;99.90;;;;;;12533044;28;20093;-39
2022/08/17 15:16:18;;;;;;;3.78;1.90;;;28.00;99.90;;;;;;12541420;28;20090;-38
2022/08/17 15:22:25;;;;;;;7.43;2.30;;;28.20;99.90;;;;;;12535975;28;20401;-33
2022/08/17 15:28:29;;;;;;;3.15;2.15;;;27.90;99.90;;;;;;12532871;28;20512;-33
2022/08/17 15:34:32;;;;;;;4.03;2.10;;;27.90;99.90;;;;;;12535121;28;20036;-37
2022/08/17 15:40:41;;;;;;;7.17;2.47;;;28.00;99.90;;;;;;12527374;28;20144;-33
2022/08/17 15:46:43;;;;;;;3.90;2.13;;;27.90;99.90;;;;;;12529321;28;20527;-33
2022/08/17 15:52:46;;;;;;;4.03;2.20;;;27.70;99.90;;;;;;12523599;28;20037;-38
2022/08/17 15:58:48;;;;;;;;;;;28.10;99.90;;;;;;12529245;28;20186;-34
2022/08/17 16:04:50;;;;;;;4.03;2.30;;;28.50;99.90;;;;;;12529424;28;19921;-33
2022/08/17 16:10:54;;;;;;;4.63;2.50;;;28.60;99.90;;;;;;12527912;28;20103;-37
2022/08/17 16:16:57;;;;;;;4.60;2.30;;;28.40;99.90;;;;;;12512765;28;20102;-39
2022/08/17 16:22:59;;;;;;;9.60;3.20;;;28.40;99.90;;;;;;12530944;28;20045;-33
2022/08/17 16:29:05;;;;;;;4.57;2.63;;;28.30;99.90;;;;;;12522488;28;20048;-37
2022/08/17 16:35:16;;;;;;;4.88;2.17;;;28.20;99.90;;;;;;12526238;28;20049;-37
2022/08/17 16:47:39;;;;;;;5.28;2.20;;;27.70;99.90;;;;;;12527957;28;20102;-37
2022/08/17 16:53:43;;;;;;;5.22;2.38;;;27.50;99.90;;;;;;12525912;28;20093;-33
2022/08/17 16:59:49;;;;;;;4.85;2.40;;;27.20;99.90;;;;;;12532572;28;20052;-33
2022/08/17 17:06:16;;;;;;;3.72;2.10;;;27.00;99.90;;;;;;12529085;28;20463;-37
2022/08/17 17:12:19;;;;;;;8.05;2.38;;;26.90;99.90;;;;;;12528018;28;20045;-37
2022/08/17 17:19:06;;;;;;;4.33;2.23;;;26.80;99.90;;;;;;12514767;28;20057;-37
2022/08/17 17:25:14;;;;;;;6.35;2.50;;;26.70;99.90;;;;;;12521795;28;20106;-37
2022/08/17 17:31:19;;;;;;;3.85;2.25;;;26.70;99.90;;;;;;12529322;28;20120;-33
2022/08/17 17:37:27;;;;;;;4.15;2.20;;;26.70;99.90;;;;;;12532947;28;20505;-37
2022/08/17 17:43:31;;;;;;;7.82;2.53;;;26.60;99.90;;;;;;12535478;28;20477;-33
2022/08/17 17:49:44;;;;;;;4.25;2.25;;;26.50;99.90;;;;;;12531466;28;20051;-33
2022/08/17 17:56:05;;;;;;;4.60;1.85;;;26.60;99.90;;;;;;12527629;28;20041;-33
2022/08/17 18:02:47;;;;;;;6.32;2.45;;;26.40;99.90;;;;;;12538106;28;20477;-33
2022/08/17 18:09:25;;;;;;;4.32;2.20;;;26.20;99.90;;;;;;12528245;28;20057;-38
2022/08/17 18:15:30;;;;;;;6.15;2.65;;;26.20;99.90;;;;;;12531057;28;20040;-38
2022/08/17 18:21:38;;;;;;;3.78;2.17;;;26.00;99.90;;;;;;12532526;28;20045;-37
2022/08/17 18:27:49;;;;;;;5.38;2.08;;;25.90;99.90;;;;;;12537718;28;20097;-37
2022/08/17 18:34:21;;;;;;;3.50;2.45;;;25.80;99.90;;;;;;12532782;28;20060;-37
2022/08/17 18:40:43;;;;;;;4.97;2.20;;;25.60;99.90;;;;;;12526407;28;20045;-36
2022/08/17 18:46:45;;;;;;;5.38;2.38;;;25.40;99.90;;;;;;12534997;28;20094;-33
2022/08/17 18:52:47;;;;;;;3.35;2.35;;;25.20;99.90;;;;;;12521989;28;20075;-33
2022/08/17 18:58:54;;;;;;;5.80;2.40;;;25.10;99.90;;;;;;12528069;28;20049;-33
2022/08/17 19:05:01;;;;;;;6.63;2.85;;;25.00;99.90;;;;;;12527246;28;20097;-33
2022/08/17 19:11:18;;;;;;;4.35;2.22;;;24.90;99.90;;;;;;12536525;28;20078;-33
2022/08/17 19:17:35;;;;;;;4.72;2.20;;;25.00;99.90;;;;;;12528653;28;20079;-36
2022/08/17 19:23:49;;;;;;;3.25;2.10;;;24.80;99.90;;;;;;12533713;28;20119;-38
2022/08/17 19:30:01;;;;;;;3.33;2.20;;;24.60;99.90;;;;;;12535283;28;20079;-33
2022/08/17 19:36:25;;;;;;;4.95;2.22;;;24.50;99.90;;;;;;12531318;28;20140;-33
2022/08/17 19:43:05;;;;;;;4.22;2.90;;;24.50;99.90;;;;;;12516517;28;20049;-37
2022/08/17 19:49:17;;;;;;;5.80;3.33;;;24.60;99.90;;;;;;12532921;28;20052;-33
2022/08/17 19:55:31;;;;;;;6.70;4.60;;;24.60;99.90;;;;;;12530814;28;20474;-36
2022/08/17 20:02:12;;;;;;;7.28;5.35;;;24.50;99.90;;;;;;12522680;28;20048;-39
2022/08/17 20:08:19;;;;;;;8.63;5.97;;;24.30;99.90;;;;;;12520948;28;20048;-33
2022/08/17 20:14:29;;;;;;;5.93;5.20;;;24.10;99.90;;;;;;12526650;28;20045;-33
2022/08/17 20:21:02;;;;;;;10.60;6.43;;;24.10;99.90;;;;;;12511201;28;20044;-36
2022/08/17 20:27:47;;;;;;;9.57;6.55;;;24.10;99.90;;;;;;12440412;28;20182;-37
2022/08/17 20:33:50;;;;;;;11.55;7.47;;;24.10;99.90;;;;;;12472547;28;20132;-36
2022/08/17 20:39:54;;;;;;;13.52;7.85;;;24.10;99.90;;;;;;12526594;28;20056;-33
2022/08/17 20:46:20;;;;;;;11.80;8.18;;;24.10;99.90;;;;;;12526844;28;20055;-36
2022/08/17 20:52:55;;;;;;;17.60;10.88;;;24.00;99.90;;;;;;12528559;28;20443;-36
2022/08/17 20:58:59;;;;;;;16.33;11.02;;;23.90;99.90;;;;;;12526521;28;20044;-36
2022/08/17 21:05:23;;;;;;;13.20;11.80;;;23.90;99.90;;;;;;12539016;28;20063;-36
2022/08/17 21:11:26;;;;;;;17.55;13.82;;;23.80;99.90;;;;;;12528762;28;20445;-36
2022/08/17 21:18:08;;;;;;;16.15;14.50;;;23.70;99.90;;;;;;12546104;28;20412;-33
2022/08/17 21:24:33;;;;;;;24.73;16.90;;;23.50;99.90;;;;;;12536547;28;20089;-33
2022/08/17 21:30:38;;;;;;;19.10;17.02;;;23.30;99.90;;;;;;12533591;28;20098;-33
2022/08/17 21:36:47;;;;;;;19.85;17.27;;;23.30;99.90;;;;;;12526402;28;20060;-33
2022/08/17 21:42:58;;;;;;;19.98;17.70;;;23.10;99.90;;;;;;12537313;28;20049;-36
2022/08/17 21:49:06;;;;;;;22.52;18.92;;;23.10;99.90;;;;;;12539199;28;20046;-33
2022/08/17 21:55:28;;;;;;;22.83;19.27;;;23.10;99.90;;;;;;12534978;28;20052;-36
2022/08/17 22:01:39;;;;;;;20.98;18.77;;;22.90;99.90;;;;;;12539363;28;20095;-34
2022/08/17 22:07:45;;;;;;;26.67;21.90;;;22.80;99.90;;;;;;12537621;28;20161;-36
2022/08/17 22:13:47;;;;;;;29.55;23.73;;;22.80;99.90;;;;;;12529429;28;20211;-36
2022/08/17 22:19:55;;;;;;;26.57;22.83;;;22.50;99.90;;;;;;12534405;28;20060;-36
2022/08/17 22:26:04;;;;;;;28.35;22.60;;;22.40;99.90;;;;;;12523273;28;20064;-32
2022/08/17 22:32:10;;;;;;;31.50;24.83;;;22.30;99.90;;;;;;12529627;28;20477;-37
2022/08/17 22:38:17;;;;;;;28.67;23.52;;;22.50;99.90;;;;;;12534764;28;20374;-32
2022/08/17 22:44:30;;;;;;;27.55;24.50;;;22.60;99.90;;;;;;12530291;28;20042;-33
2022/08/17 22:50:32;;;;;;;29.17;24.33;;;22.30;99.90;;;;;;12535869;28;20190;-37
2022/08/17 23:03:10;;;;;;;38.00;31.20;;;22.60;99.90;;;;;;12532173;28;20094;-36
2022/08/17 23:09:12;;;;;;;37.00;30.10;;;22.60;99.90;;;;;;12529809;28;20052;-32
2022/08/17 23:15:16;;;;;;;35.00;29.55;;;22.50;99.90;;;;;;12529589;28;20038;-33
2022/08/17 23:21:21;;;;;;;38.38;29.67;;;22.30;99.90;;;;;;12517517;28;20067;-32
2022/08/17 23:27:28;;;;;;;39.38;30.85;;;22.30;99.90;;;;;;12532249;28;20056;-32
2022/08/17 23:33:33;;;;;;;38.42;30.83;;;22.20;99.90;;;;;;12532344;28;20053;-32
2022/08/17 23:39:36;;;;;;;40.08;32.28;;;22.10;99.90;;;;;;12533030;28;20463;-32
2022/08/17 23:45:38;;;;;;;39.80;34.47;;;22.20;99.90;;;;;;12530914;28;20052;-36
2022/08/17 23:51:41;;;;;;;41.25;34.42;;;22.10;99.90;;;;;;12513470;28;20143;-36
2022/08/17 23:57:43;;;;;;;41.87;35.23;;;22.00;99.90;;;;;;12529858;28;20527;-32
